createdAt,value
2023-05-13T00:00:02.319Z,90.42
2023-05-13T00:02:33.990Z,93.77
2023-05-13T00:05:02.621Z,92.73
2023-05-13T00:07:30.995Z,87.97
2023-05-13T00:09:59.381Z,90.27
2023-05-13T00:12:27.923Z,90.31
2023-05-13T00:14:57.603Z,89.20
2023-05-13T00:17:26.296Z,90.27
2023-05-13T00:19:55.224Z,88.68
2023-05-13T00:22:23.580Z,91.31
2023-05-13T00:24:52.004Z,90.48
2023-05-13T00:27:20.576Z,89.81
2023-05-13T00:29:48.909Z,87.40
2023-05-13T00:32:18.643Z,88.85
2023-05-13T00:34:47.261Z,89.66
2023-05-13T00:37:15.712Z,89.50
2023-05-13T00:39:43.973Z,87.67
2023-05-13T00:42:13.739Z,87.85
2023-05-13T00:44:42.458Z,86.99
2023-05-13T00:47:11.264Z,87.93
2023-05-13T00:49:41.499Z,85.84
2023-05-13T00:52:10.059Z,88.20
2023-05-13T00:54:39.761Z,86.79
2023-05-13T00:57:08.350Z,87.86
2023-05-13T00:59:40.206Z,89.12
2023-05-13T01:02:10.707Z,92.64
2023-05-13T01:04:42.607Z,88.10
2023-05-13T01:07:13.774Z,91.04
2023-05-13T01:09:46.519Z,86.70
2023-05-13T01:12:17.429Z,92.30
2023-05-13T01:14:46.632Z,88.77
2023-05-13T01:17:16.254Z,86.62
2023-05-13T01:19:45.819Z,88.18
2023-05-13T01:22:15.886Z,86.80
2023-05-13T01:24:45.755Z,86.19
2023-05-13T01:27:14.112Z,86.03
2023-05-13T01:29:42.398Z,88.51
2023-05-13T01:32:12.003Z,87.36
2023-05-13T01:34:40.778Z,86.89
2023-05-13T01:37:09.180Z,86.10
2023-05-13T01:39:40.037Z,89.50
2023-05-13T01:42:09.315Z,87.18
2023-05-13T01:44:40.028Z,87.06
2023-05-13T01:47:08.380Z,87.44
2023-05-13T01:49:36.780Z,88.83
2023-05-13T01:52:05.780Z,86.45
2023-05-13T01:54:34.110Z,89.45
2023-05-13T01:57:04.402Z,89.50
2023-05-13T01:59:33.032Z,89.78
2023-05-13T02:02:01.552Z,89.90
2023-05-13T02:04:30.342Z,91.62
2023-05-13T02:06:59.291Z,92.11
2023-05-13T02:09:28.382Z,88.81
2023-05-13T02:11:56.994Z,89.90
2023-05-13T02:14:26.756Z,88.41
2023-05-13T02:16:56.011Z,89.09
2023-05-13T02:19:24.861Z,88.77
2023-05-13T02:21:53.448Z,90.01
2023-05-13T02:24:22.056Z,91.45
2023-05-13T02:26:50.422Z,92.31
2023-05-13T02:29:19.345Z,88.78
2023-05-13T02:31:49.076Z,88.17
2023-05-13T02:34:17.622Z,88.01
2023-05-13T02:36:46.244Z,89.92
2023-05-13T02:39:14.580Z,90.61
2023-05-13T02:41:44.490Z,88.55
2023-05-13T02:44:13.139Z,86.83
2023-05-13T02:46:44.144Z,90.03
2023-05-13T02:49:14.229Z,88.69
2023-05-13T02:51:42.548Z,89.53
2023-05-13T02:54:11.054Z,89.53
2023-05-13T02:56:40.110Z,89.26
2023-05-13T02:59:08.639Z,88.49
2023-05-13T03:01:37.163Z,89.92
2023-05-13T03:04:06.196Z,89.06
2023-05-13T03:06:35.858Z,89.97
2023-05-13T03:09:04.244Z,88.79
2023-05-13T03:11:34.243Z,89.35
2023-05-13T03:14:02.579Z,90.26
2023-05-13T03:16:31.001Z,87.25
2023-05-13T03:18:59.737Z,90.36
2023-05-13T03:21:28.203Z,90.02
2023-05-13T03:23:58.191Z,91.47
2023-05-13T03:26:27.020Z,87.49
2023-05-13T03:28:56.147Z,88.14
2023-05-13T03:31:24.712Z,90.26
2023-05-13T03:33:53.395Z,87.19
2023-05-13T03:36:22.018Z,86.67
2023-05-13T03:38:51.193Z,86.88
2023-05-13T03:41:21.188Z,86.69
2023-05-13T03:43:49.834Z,86.39
2023-05-13T03:46:18.469Z,86.16
2023-05-13T03:48:47.146Z,85.84
2023-05-13T03:51:16.012Z,87.30
2023-05-13T03:53:44.512Z,87.20
2023-05-13T03:56:15.112Z,87.93
2023-05-13T03:58:46.088Z,92.14
2023-05-13T04:01:14.729Z,93.62
2023-05-13T04:03:45.397Z,91.69
2023-05-13T04:06:14.619Z,94.21
2023-05-13T04:08:43.540Z,94.31
2023-05-13T04:11:11.822Z,91.05
2023-05-13T04:13:40.539Z,92.97
2023-05-13T04:16:10.504Z,94.99
2023-05-13T04:18:38.997Z,95.53
2023-05-13T04:21:07.711Z,91.80
2023-05-13T04:23:36.405Z,94.60
2023-05-13T04:26:04.742Z,95.31
2023-05-13T04:28:33.957Z,95.63
2023-05-13T04:31:03.048Z,95.32
2023-05-13T04:33:33.693Z,94.96
2023-05-13T04:36:02.049Z,96.42
2023-05-13T04:38:34.271Z,98.46
2023-05-13T04:41:02.915Z,98.53
2023-05-13T04:43:32.163Z,96.08
2023-05-13T04:46:01.705Z,93.54
2023-05-13T04:48:30.440Z,91.50
2023-05-13T04:51:00.875Z,93.69
2023-05-13T04:53:30.291Z,93.69
2023-05-13T04:56:00.953Z,91.78
2023-05-13T04:58:29.592Z,90.79
2023-05-13T05:00:58.397Z,91.30
2023-05-13T05:03:27.191Z,88.47
2023-05-13T05:05:55.709Z,90.10
2023-05-13T05:08:26.290Z,93.73
2023-05-13T05:10:54.972Z,92.69
2023-05-13T05:13:24.133Z,91.42
2023-05-13T05:15:52.498Z,91.65
2023-05-13T05:18:21.244Z,90.68
2023-05-13T05:20:49.969Z,92.19
2023-05-13T05:23:18.656Z,92.43
2023-05-13T05:25:53.228Z,94.32
2023-05-13T05:28:29.837Z,93.14
2023-05-13T05:30:58.573Z,90.65
2023-05-13T05:33:27.208Z,89.35
2023-05-13T05:35:55.615Z,91.76
2023-05-13T05:38:25.368Z,88.15
2023-05-13T05:40:55.289Z,89.13
2023-05-13T05:43:23.931Z,87.68
2023-05-13T05:45:53.072Z,87.77
2023-05-13T05:48:21.615Z,88.92
2023-05-13T05:50:50.431Z,93.11
2023-05-13T05:53:19.397Z,92.55
2023-05-13T05:55:48.002Z,92.39
2023-05-13T05:58:18.716Z,94.60
2023-05-13T06:00:47.185Z,93.46
2023-05-13T06:03:15.965Z,92.91
2023-05-13T06:05:44.395Z,92.60
2023-05-13T06:08:13.475Z,91.93
2023-05-13T06:10:42.088Z,90.13
2023-05-13T06:13:10.449Z,89.78
2023-05-13T06:15:40.264Z,88.91
2023-05-13T06:18:09.002Z,89.73
2023-05-13T06:20:37.421Z,87.90
2023-05-13T06:23:05.796Z,87.29
2023-05-13T06:25:34.390Z,87.72
2023-05-13T06:28:03.136Z,87.64
2023-05-13T06:30:31.774Z,84.12
2023-05-13T06:33:02.641Z,85.50
2023-05-13T06:35:31.436Z,85.68
2023-05-13T06:38:00.318Z,85.56
2023-05-13T06:40:29.299Z,87.01
2023-05-13T06:42:57.903Z,86.18
2023-05-13T06:45:29.739Z,86.08
2023-05-13T06:47:58.583Z,83.38
2023-05-13T06:50:28.417Z,85.71
2023-05-13T06:53:01.105Z,86.88
2023-05-13T06:55:29.480Z,87.91
2023-05-13T06:57:58.063Z,88.75
2023-05-13T07:00:26.601Z,88.52
2023-05-13T07:02:54.958Z,87.66
2023-05-13T07:05:23.681Z,87.56
2023-05-13T07:07:53.819Z,86.99
2023-05-13T07:10:22.447Z,90.12
2023-05-13T07:12:51.418Z,88.67
2023-05-13T07:15:20.058Z,88.65
2023-05-13T07:17:48.682Z,87.41
2023-05-13T07:20:22.134Z,87.06
2023-05-13T07:22:51.084Z,83.37
2023-05-13T07:25:21.051Z,80.62
2023-05-13T07:27:49.358Z,82.04
2023-05-13T07:30:17.787Z,84.51
2023-05-13T07:32:46.393Z,82.70
2023-05-13T07:35:16.680Z,81.41
2023-05-13T07:37:48.490Z,80.63
2023-05-13T07:40:17.912Z,82.09
2023-05-13T07:42:48.110Z,80.10
2023-05-13T07:45:16.781Z,80.26
2023-05-13T07:47:45.150Z,80.66
2023-05-13T07:50:13.543Z,80.83
2023-05-13T07:52:42.279Z,80.62
2023-05-13T07:55:10.953Z,77.98
2023-05-13T07:57:39.246Z,78.18
2023-05-13T08:00:10.086Z,78.61
2023-05-13T08:02:41.111Z,76.75
2023-05-13T08:05:10.163Z,77.49
2023-05-13T08:07:38.609Z,77.29
2023-05-13T08:10:07.691Z,77.13
2023-05-13T08:12:36.599Z,76.80
2023-05-13T08:15:06.020Z,78.63
2023-05-13T08:17:35.869Z,76.85
2023-05-13T08:20:04.603Z,79.34
2023-05-13T08:22:33.903Z,77.77
2023-05-13T08:25:03.379Z,78.74
2023-05-13T08:27:32.272Z,79.58
2023-05-13T08:30:00.700Z,77.23
2023-05-13T08:32:29.047Z,78.23
2023-05-13T08:34:59.390Z,80.27
2023-05-13T08:37:27.753Z,78.82
2023-05-13T08:39:57.608Z,80.26
2023-05-13T08:42:26.445Z,81.63
2023-05-13T08:44:54.813Z,81.02
2023-05-13T08:47:26.225Z,83.78
2023-05-13T08:49:54.903Z,82.81
2023-05-13T08:52:24.601Z,82.26
2023-05-13T08:54:52.901Z,81.56
2023-05-13T08:57:21.644Z,81.18
2023-05-13T08:59:49.995Z,82.55
2023-05-13T09:02:18.731Z,82.64
2023-05-13T09:04:47.673Z,80.69
2023-05-13T09:07:16.042Z,79.52
2023-05-13T09:09:45.731Z,78.08
2023-05-13T09:12:14.373Z,75.61
2023-05-13T09:14:43.144Z,79.30
2023-05-13T09:17:11.502Z,77.65
2023-05-13T09:19:40.201Z,76.84
2023-05-13T09:22:14.518Z,76.90
2023-05-13T09:24:45.429Z,76.01
2023-05-13T09:27:13.796Z,75.47
2023-05-13T09:29:42.147Z,75.35
2023-05-13T09:32:10.720Z,73.65
2023-05-13T09:34:39.656Z,73.42
2023-05-13T09:37:09.096Z,74.15
2023-05-13T09:39:39.850Z,71.25
2023-05-13T09:42:13.633Z,73.55
2023-05-13T09:44:42.173Z,75.59
2023-05-13T09:47:12.366Z,74.64
2023-05-13T09:49:41.629Z,71.18
2023-05-13T09:52:11.830Z,70.55
2023-05-13T09:54:40.417Z,70.46
2023-05-13T09:57:08.719Z,68.49
2023-05-13T09:59:38.676Z,69.90
2023-05-13T10:02:07.426Z,69.43
2023-05-13T10:04:36.311Z,67.53
2023-05-13T10:07:05.229Z,69.97
2023-05-13T10:09:35.934Z,72.01
2023-05-13T10:12:05.045Z,69.91
2023-05-13T10:14:33.392Z,69.56
2023-05-13T10:17:03.174Z,69.63
2023-05-13T10:19:31.848Z,70.14
2023-05-13T10:22:00.166Z,69.79
2023-05-13T10:24:29.075Z,70.38
2023-05-13T10:26:57.722Z,69.21
2023-05-13T10:29:26.085Z,67.17
2023-05-13T10:31:54.457Z,66.60
2023-05-13T10:34:24.513Z,66.13
2023-05-13T10:37:05.137Z,68.89
2023-05-13T10:39:38.608Z,69.25
2023-05-13T10:42:17.814Z,72.39
2023-05-13T10:44:46.461Z,70.45
2023-05-13T10:47:14.776Z,69.31
2023-05-13T10:49:48.141Z,70.27
2023-05-13T10:52:16.826Z,68.72
2023-05-13T10:54:45.259Z,67.10
2023-05-13T10:57:13.576Z,68.88
2023-05-13T10:59:50.552Z,67.75
2023-05-13T11:02:21.953Z,69.38
2023-05-13T11:05:00.443Z,67.61
2023-05-13T11:07:29.727Z,66.48
2023-05-13T11:09:58.373Z,67.70
2023-05-13T11:12:26.644Z,68.06
2023-05-13T11:14:56.587Z,68.54
2023-05-13T11:17:25.264Z,67.21
2023-05-13T11:19:53.857Z,64.76
2023-05-13T11:22:24.712Z,66.06
2023-05-13T11:25:06.436Z,66.69
2023-05-13T11:27:35.213Z,67.12
2023-05-13T11:30:04.709Z,65.80
2023-05-13T11:32:53.307Z,65.39
2023-05-13T11:35:22.088Z,65.42
2023-05-13T11:37:51.821Z,67.21
2023-05-13T11:40:23.757Z,67.61
2023-05-13T11:42:52.531Z,66.42
2023-05-13T11:45:39.630Z,68.57
2023-05-13T11:48:18.973Z,69.60
2023-05-13T11:50:47.372Z,67.88
2023-05-13T11:53:22.114Z,67.51
2023-05-13T11:55:50.451Z,66.93
2023-05-13T11:58:19.028Z,67.63
2023-05-13T12:00:47.307Z,68.12
2023-05-13T12:03:16.532Z,66.52
2023-05-13T12:05:45.211Z,67.83
2023-05-13T12:08:13.564Z,66.98
2023-05-13T12:10:45.437Z,66.69
2023-05-13T12:13:13.743Z,66.07
2023-05-13T12:15:42.559Z,65.48
2023-05-13T12:18:11.148Z,66.44
2023-05-13T12:20:39.565Z,65.99
2023-05-13T12:23:08.287Z,65.12
2023-05-13T12:25:40.707Z,64.80
2023-05-13T12:28:11.893Z,63.85
2023-05-13T12:30:40.945Z,63.85
2023-05-13T12:33:13.860Z,65.54
2023-05-13T12:35:42.121Z,64.75
2023-05-13T12:38:15.192Z,66.92
2023-05-13T12:40:43.487Z,67.02
2023-05-13T12:43:14.171Z,68.13
2023-05-13T12:45:44.932Z,67.60
2023-05-13T12:48:14.487Z,67.00
2023-05-13T12:50:42.794Z,67.15
2023-05-13T12:53:11.210Z,67.64
2023-05-13T12:55:40.260Z,65.44
2023-05-13T12:58:11.028Z,67.81
2023-05-13T13:00:41.105Z,64.62
2023-05-13T13:03:09.617Z,64.99
2023-05-13T13:05:38.064Z,64.82
2023-05-13T13:08:06.802Z,64.65
2023-05-13T13:10:35.140Z,64.87
2023-05-13T13:13:03.544Z,65.29
2023-05-13T13:15:32.186Z,63.19
2023-05-13T13:18:02.257Z,63.54
2023-05-13T13:20:30.670Z,62.85
2023-05-13T13:23:18.145Z,63.84
2023-05-13T13:25:46.435Z,62.20
2023-05-13T13:28:15.046Z,60.64
2023-05-13T13:30:46.606Z,63.63
2023-05-13T13:33:17.028Z,61.75
2023-05-13T13:35:45.475Z,61.85
2023-05-13T13:38:14.058Z,62.78
2023-05-13T13:40:42.619Z,63.90
2023-05-13T13:43:10.931Z,62.36
2023-05-13T13:45:39.269Z,62.59
2023-05-13T13:48:08.401Z,62.26
2023-05-13T13:50:38.257Z,62.78
2023-05-13T13:53:06.637Z,64.06
2023-05-13T13:55:35.207Z,64.74
2023-05-13T13:58:03.576Z,65.61
2023-05-13T14:00:31.911Z,64.49
2023-05-13T14:03:02.582Z,62.86
2023-05-13T14:05:31.120Z,63.67
2023-05-13T14:08:00.926Z,64.28
2023-05-13T14:10:29.621Z,63.62
2023-05-13T14:12:57.960Z,61.45
2023-05-13T14:15:28.847Z,61.67
2023-05-13T14:17:57.599Z,63.69
2023-05-13T14:20:28.787Z,63.10
2023-05-13T14:22:57.231Z,60.93
2023-05-13T14:25:27.605Z,60.98
2023-05-13T14:27:56.009Z,63.00
2023-05-13T14:30:24.527Z,63.14
2023-05-13T14:32:53.249Z,64.56
2023-05-13T14:35:21.556Z,63.04
2023-05-13T14:37:49.839Z,62.77
2023-05-13T14:40:18.471Z,62.29
2023-05-13T14:42:49.440Z,63.89
2023-05-13T14:45:18.760Z,64.29
2023-05-13T14:47:47.318Z,62.20
2023-05-13T14:50:16.109Z,62.83
2023-05-13T14:52:44.678Z,60.08
2023-05-13T14:55:14.051Z,60.03
2023-05-13T14:57:42.346Z,59.80
2023-05-13T15:00:13.072Z,61.23
2023-05-13T15:02:41.504Z,61.40
2023-05-13T15:05:09.989Z,61.68
2023-05-13T15:07:38.550Z,63.21
2023-05-13T15:10:07.497Z,61.25
2023-05-13T15:12:35.881Z,61.23
2023-05-13T15:15:04.768Z,62.86
2023-05-13T15:17:34.490Z,63.15
2023-05-13T15:20:03.015Z,63.34
2023-05-13T15:22:34.018Z,64.36
2023-05-13T15:25:02.701Z,63.13
2023-05-13T15:27:31.010Z,62.58
2023-05-13T15:29:59.576Z,62.97
2023-05-13T15:32:27.907Z,62.48
2023-05-13T15:34:57.648Z,63.18
2023-05-13T15:37:26.211Z,64.20
2023-05-13T15:39:55.608Z,63.19
2023-05-13T15:42:24.005Z,63.29
2023-05-13T15:44:52.644Z,64.60
2023-05-13T15:47:21.122Z,63.47
2023-05-13T15:49:50.803Z,65.78
2023-05-13T15:52:20.844Z,64.45
2023-05-13T15:54:49.173Z,63.44
2023-05-13T15:57:19.131Z,64.69
2023-05-13T15:59:47.808Z,63.54
2023-05-13T16:02:18.339Z,61.66
2023-05-13T16:04:47.073Z,63.08
2023-05-13T16:07:15.464Z,62.93
2023-05-13T16:09:45.129Z,61.45
2023-05-13T16:12:13.815Z,59.28
2023-05-13T16:14:42.764Z,60.35
2023-05-13T16:17:11.173Z,62.20
2023-05-13T16:19:39.771Z,62.18
2023-05-13T16:22:30.510Z,61.10
2023-05-13T16:25:01.802Z,60.67
2023-05-13T16:27:30.448Z,61.88
2023-05-13T16:29:59.348Z,62.75
2023-05-13T16:32:27.735Z,63.48
2023-05-13T16:34:56.416Z,63.54
2023-05-13T16:37:25.001Z,62.45
2023-05-13T16:39:53.547Z,62.28
2023-05-13T16:42:23.411Z,62.11
2023-05-13T16:44:52.590Z,61.96
2023-05-13T16:47:21.866Z,61.16
2023-05-13T16:49:50.972Z,60.69
2023-05-13T16:52:19.499Z,61.00
2023-05-13T16:54:47.943Z,59.74
2023-05-13T16:57:16.391Z,59.14
2023-05-13T16:59:46.423Z,61.90
2023-05-13T17:02:14.866Z,61.35
2023-05-13T17:04:43.620Z,61.70
2023-05-13T17:07:12.323Z,61.13
2023-05-13T17:09:40.850Z,60.38
2023-05-13T17:12:09.465Z,60.13
2023-05-13T17:14:38.088Z,60.09
2023-05-13T17:17:07.955Z,59.78
2023-05-13T17:19:36.284Z,60.00
2023-05-13T17:22:05.001Z,59.60
2023-05-13T17:24:33.340Z,60.05
2023-05-13T17:27:01.815Z,60.83
2023-05-13T17:29:30.412Z,60.50
2023-05-13T17:31:58.725Z,60.58
2023-05-13T17:34:28.411Z,61.72
2023-05-13T17:36:56.977Z,61.97
2023-05-13T17:39:25.442Z,62.00
2023-05-13T17:41:53.838Z,62.37
2023-05-13T17:44:23.971Z,63.96
2023-05-13T17:46:52.498Z,61.44
2023-05-13T17:49:20.978Z,62.73
2023-05-13T17:51:51.274Z,61.87
2023-05-13T17:54:19.600Z,61.57
2023-05-13T17:56:47.934Z,61.60
2023-05-13T17:59:16.598Z,62.78
2023-05-13T18:01:45.343Z,63.50
2023-05-13T18:04:14.001Z,65.03
2023-05-13T18:06:42.299Z,64.64
2023-05-13T18:09:11.978Z,64.24
2023-05-13T18:11:40.615Z,64.63
2023-05-13T18:14:09.129Z,65.62
2023-05-13T18:16:37.562Z,65.96
2023-05-13T18:19:06.887Z,68.32
2023-05-13T18:21:35.349Z,65.91
2023-05-13T18:24:03.711Z,66.52
2023-05-13T18:26:33.703Z,66.30
2023-05-13T18:29:02.034Z,66.48
2023-05-13T18:31:34.671Z,67.12
2023-05-13T18:34:03.882Z,67.14
2023-05-13T18:36:34.904Z,66.81
2023-05-13T18:39:03.846Z,65.94
2023-05-13T18:41:33.582Z,65.43
2023-05-13T18:44:02.072Z,65.93
2023-05-13T18:46:30.876Z,67.36
2023-05-13T18:49:00.408Z,69.07
2023-05-13T18:51:28.889Z,67.84
2023-05-13T18:53:57.516Z,68.02
2023-05-13T18:56:26.271Z,67.35
2023-05-13T18:58:56.248Z,67.62
2023-05-13T19:01:25.096Z,68.44
2023-05-13T19:03:53.998Z,68.88
2023-05-13T19:06:22.677Z,69.93
2023-05-13T19:08:51.634Z,70.94
2023-05-13T19:11:20.055Z,68.35
2023-05-13T19:13:48.641Z,68.50
2023-05-13T19:16:19.135Z,69.71
2023-05-13T19:18:47.863Z,71.66
2023-05-13T19:21:16.618Z,70.87
2023-05-13T19:23:44.972Z,70.30
2023-05-13T19:26:13.830Z,69.00
2023-05-13T19:28:43.835Z,69.54
2023-05-13T19:31:12.409Z,71.12
2023-05-13T19:33:43.403Z,73.87
2023-05-13T19:36:13.393Z,74.70
2023-05-13T19:38:41.731Z,72.86
2023-05-13T19:41:10.118Z,71.01
2023-05-13T19:43:38.727Z,70.75
2023-05-13T19:46:07.253Z,71.10
2023-05-13T19:48:35.734Z,70.22
2023-05-13T19:51:06.218Z,70.13
2023-05-13T19:53:34.575Z,72.05
2023-05-13T19:56:02.879Z,73.38
2023-05-13T19:58:31.528Z,71.90
2023-05-13T20:00:59.829Z,72.23
2023-05-13T20:03:28.498Z,71.74
2023-05-13T20:05:57.226Z,70.31
2023-05-13T20:08:29.563Z,71.71
2023-05-13T20:10:58.433Z,71.20
2023-05-13T20:13:26.837Z,72.03
2023-05-13T20:15:55.226Z,72.90
2023-05-13T20:18:24.096Z,71.33
2023-05-13T20:20:53.781Z,72.30
2023-05-13T20:23:22.068Z,73.37
2023-05-13T20:25:52.805Z,73.67
2023-05-13T20:28:21.210Z,74.69
2023-05-13T20:30:52.418Z,74.92
2023-05-13T20:33:21.097Z,74.78
2023-05-13T20:35:49.749Z,74.57
2023-05-13T20:38:18.186Z,74.04
2023-05-13T20:40:47.456Z,74.73
2023-05-13T20:43:17.474Z,75.14
2023-05-13T20:45:46.057Z,73.88
2023-05-13T20:48:14.790Z,72.93
2023-05-13T20:50:43.181Z,71.65
2023-05-13T20:53:11.537Z,74.29
2023-05-13T20:55:40.123Z,73.70
2023-05-13T20:58:08.439Z,75.07
2023-05-13T21:00:38.123Z,73.78
2023-05-13T21:03:06.815Z,73.10
2023-05-13T21:05:35.311Z,74.47
2023-05-13T21:08:03.626Z,74.97
2023-05-13T21:10:32.297Z,73.71
2023-05-13T21:13:01.280Z,74.72
2023-05-13T21:15:29.720Z,74.03
2023-05-13T21:17:59.770Z,73.99
2023-05-13T21:20:28.235Z,73.54
2023-05-13T21:22:56.558Z,72.93
2023-05-13T21:25:25.177Z,72.92
2023-05-13T21:27:53.570Z,72.04
2023-05-13T21:30:22.090Z,73.07
2023-05-13T21:32:50.867Z,71.34
2023-05-13T21:35:20.675Z,71.09
2023-05-13T21:37:49.715Z,72.76
2023-05-13T21:40:19.561Z,72.76
2023-05-13T21:42:47.911Z,72.98
2023-05-13T21:45:16.365Z,72.96
2023-05-13T21:47:45.100Z,72.58
2023-05-13T21:50:13.461Z,73.29
2023-05-13T21:52:43.288Z,72.98
2023-05-13T21:55:12.034Z,73.73
2023-05-13T21:57:40.582Z,72.94
2023-05-13T22:00:10.764Z,73.25
2023-05-13T22:02:45.124Z,75.88
2023-05-13T22:05:14.298Z,75.49
2023-05-13T22:07:43.972Z,74.41
2023-05-13T22:10:12.503Z,75.07
2023-05-13T22:12:44.188Z,73.93
2023-05-13T22:15:12.766Z,75.49
2023-05-13T22:17:41.496Z,75.13
2023-05-13T22:20:10.533Z,73.66
2023-05-13T22:22:38.904Z,74.80
2023-05-13T22:25:09.308Z,73.16
2023-05-13T22:27:37.642Z,73.43
2023-05-13T22:30:06.654Z,74.33
2023-05-13T22:32:36.960Z,74.44
2023-05-13T22:35:05.779Z,72.78
2023-05-13T22:37:34.336Z,74.27
2023-05-13T22:40:03.010Z,74.67
2023-05-13T22:42:32.704Z,73.13
2023-05-13T22:45:01.090Z,73.37
2023-05-13T22:47:30.367Z,73.64
2023-05-13T22:49:58.764Z,73.01
2023-05-13T22:52:27.081Z,72.43
2023-05-13T22:54:56.008Z,74.21
2023-05-13T22:57:26.429Z,74.13
2023-05-13T22:59:56.110Z,74.38
2023-05-13T23:02:24.827Z,73.42
2023-05-13T23:04:53.335Z,72.57
2023-05-13T23:07:21.663Z,72.84
2023-05-13T23:09:50.377Z,71.92
2023-05-13T23:12:18.647Z,72.64
2023-05-13T23:14:46.986Z,72.07
2023-05-13T23:17:16.840Z,71.13
2023-05-13T23:19:45.186Z,73.35
2023-05-13T23:22:13.541Z,71.75
2023-05-13T23:24:42.106Z,71.59
2023-05-13T23:27:10.396Z,70.34
2023-05-13T23:29:38.720Z,70.67
2023-05-13T23:32:07.485Z,72.12
2023-05-13T23:34:37.205Z,71.95
2023-05-13T23:37:05.829Z,73.45
2023-05-13T23:39:37.489Z,71.84
2023-05-13T23:42:05.921Z,71.14
2023-05-13T23:44:34.578Z,73.17
2023-05-13T23:47:03.439Z,74.35
2023-05-13T23:49:31.727Z,73.63
2023-05-13T23:52:01.751Z,73.52
2023-05-13T23:54:30.014Z,74.48
2023-05-13T23:56:58.333Z,73.92
2023-05-13T23:59:27.049Z,74.88
